CheckWX is a tool to help pilots better visualize weather data.  It is not intended as a substitute for an official pre-flight weather briefing.

18:49:02 UTC

KDSV METAR
Dansville Municipal Airport
Dansville, New York, USA
Current

55 mins ago

KDSV 171754Z AUTO 31010G18KT 10SM OVC022 08/05 A2957 RMK AO2 RAE46 SLP025 P0000 60010 T00830050 10083 20078 51027
Observed
Oct-17 @ 17:54 UTC
Wind
  • 310° at 10 KTS
  • Gusting to 18 KTS
Visibility
10 SM
Flight Rules
MVFR
Cloud Levels
  • Overcast at 2,200' AGL
Temperature
C / 46°F
Dewpoint
C / 41°F
Humidity
82%
Altimeter
29.57" Hg
Pressure
1001.32 hPa
Current Rain
0.01"
Previous

2 hours ago

KDSV 171654Z AUTO 31011KT 10SM -RA BKN022 OVC029 08/06 A2955 RMK AO2 SLP019 P0001 T00780056
Observed
Oct-17 @ 16:54 UTC
Wind
  • 310° at 11 KTS
Visibility
10 SM
Flight Rules
MVFR
Conditions
Light Rain
Cloud Levels
  • Broken at 2,200' AGL
  • Overcast at 2,900' AGL
Temperature
C / 46°F
Dewpoint
C / 43°F
Humidity
87%
Altimeter
29.55" Hg
Pressure
1000.72 hPa
Current Rain
0.01"
Previous

3 hours ago

KDSV 171554Z AUTO 32015G20KT 7SM -RA BKN022 OVC027 08/06 A2953 RMK AO2 SLP010 P0006 T00780056
Observed
Oct-17 @ 15:54 UTC
Wind
  • 320° at 15 KTS
  • Gusting to 20 KTS
Visibility
7 SM
Flight Rules
MVFR
Conditions
Light Rain
Cloud Levels
  • Broken at 2,200' AGL
  • Overcast at 2,700' AGL
Temperature
C / 46°F
Dewpoint
C / 43°F
Humidity
87%
Altimeter
29.53" Hg
Pressure
1000.02 hPa
Current Rain
0.06"